Time;durP1;ratioP1;P1;durP2;ratioP2;P2;SDS_P1;SDS_P2;PMS_P1;PMS_P2;Temp;Humidity;BMP_temperature;BMP_pressure;BME280_temperature;BME280_humidity;BME280_pressure;Samples;Min_cycle;Max_cycle;Signal;HPM_P1;HPM_P2
2022/06/30 00:00:04;;;;;;;7.05;6.45;;;18.50;99.90;;;;;;5035919;28;20036;-82
2022/06/30 00:02:30;;;;;;;7.65;6.18;;;18.60;99.90;;;;;;5064696;28;20131;-81
2022/06/30 00:04:55;;;;;;;6.55;5.95;;;18.50;99.90;;;;;;5049899;28;20150;-82
2022/06/30 00:07:21;;;;;;;8.27;7.50;;;18.30;99.90;;;;;;5061197;28;20036;-81
2022/06/30 00:09:47;;;;;;;7.95;7.18;;;18.20;99.90;;;;;;5067981;28;20036;-79
2022/06/30 00:12:12;;;;;;;7.85;7.15;;;18.10;99.90;;;;;;5033031;28;20033;-82
2022/06/30 00:14:38;;;;;;;11.82;7.72;;;18.20;99.90;;;;;;5067013;28;20443;-82
2022/06/30 00:17:05;;;;;;;9.60;7.38;;;18.20;99.90;;;;;;5066482;28;20044;-81
2022/06/30 00:19:31;;;;;;;8.07;7.30;;;18.20;99.90;;;;;;5081713;28;20052;-81
2022/06/30 00:21:57;;;;;;;8.57;7.70;;;18.20;99.90;;;;;;5049423;28;20407;-80
2022/06/30 00:24:23;;;;;;;7.57;6.88;;;18.20;99.90;;;;;;5056336;28;20040;-81
2022/06/30 00:26:49;;;;;;;8.38;7.53;;;18.30;99.90;;;;;;5064587;28;20048;-78
2022/06/30 00:29:14;;;;;;;7.22;6.55;;;18.40;99.90;;;;;;5053288;28;20131;-81
2022/06/30 00:31:40;;;;;;;9.32;7.38;;;18.40;99.90;;;;;;5056803;28;20099;-81
2022/06/30 00:34:06;;;;;;;8.27;7.50;;;18.20;99.90;;;;;;5061791;28;20029;-81
2022/06/30 00:36:31;;;;;;;10.18;7.45;;;18.20;99.90;;;;;;5073568;28;20047;-85
2022/06/30 00:38:57;;;;;;;8.10;7.00;;;18.10;99.90;;;;;;5066867;28;20045;-85
2022/06/30 00:41:23;;;;;;;8.45;7.68;;;18.20;99.90;;;;;;5047944;28;20049;-85
2022/06/30 00:43:49;;;;;;;7.75;6.97;;;18.20;99.90;;;;;;5066617;28;20090;-75
2022/06/30 00:46:15;;;;;;;9.02;8.13;;;18.20;99.90;;;;;;5064381;28;20091;-85
2022/06/30 00:48:42;;;;;;;7.85;7.05;;;18.20;99.90;;;;;;5065037;28;20037;-86
2022/06/30 00:51:08;;;;;;;7.75;7.05;;;18.30;99.90;;;;;;5048718;28;20053;-86
2022/06/30 00:53:39;;;;;;;11.52;7.05;;;18.30;99.90;;;;;;5053089;28;20127;-85
2022/06/30 00:56:06;;;;;;;9.35;7.45;;;18.30;99.90;;;;;;5067924;28;20471;-85
2022/06/30 00:58:37;;;;;;;6.82;5.82;;;18.40;99.90;;;;;;5052856;28;20044;-86
2022/06/30 01:01:06;;;;;;;7.15;6.50;;;18.40;99.90;;;;;;5044950;28;20555;-86
2022/06/30 01:03:33;;;;;;;8.77;7.35;;;18.30;99.90;;;;;;5066433;28;20049;-85
2022/06/30 01:06:03;;;;;;;7.53;6.75;;;18.30;99.90;;;;;;5065796;28;20044;-86
2022/06/30 01:08:29;;;;;;;;;;;18.20;99.90;;;;;;5081508;28;20068;-85
2022/06/30 01:13:43;;;;;;;6.50;5.90;;;18.30;99.90;;;;;;5005101;28;20511;-85
2022/06/30 01:16:11;;;;;;;6.32;5.70;;;18.30;99.90;;;;;;5058522;28;20059;-86
2022/06/30 01:18:37;;;;;;;5.65;4.53;;;18.30;99.90;;;;;;5067167;28;20040;-85
2022/06/30 01:21:02;;;;;;;6.65;5.18;;;18.30;99.90;;;;;;5065158;28;20245;-85
2022/06/30 01:23:28;;;;;;;5.68;4.07;;;18.40;99.90;;;;;;5064764;28;20036;-85
2022/06/30 01:25:54;;;;;;;6.82;4.45;;;18.40;99.90;;;;;;5072112;28;20044;-85
2022/06/30 01:28:20;;;;;;;4.03;3.65;;;18.50;99.90;;;;;;5061732;28;20042;-85
2022/06/30 01:30:46;;;;;;;6.60;4.10;;;18.40;99.90;;;;;;5065805;28;20135;-85
2022/06/30 01:33:13;;;;;;;6.22;4.10;;;18.50;99.90;;;;;;5054743;28;20179;-85
2022/06/30 01:35:39;;;;;;;6.65;4.10;;;18.50;99.90;;;;;;5061349;28;20054;-87
2022/06/30 01:38:05;;;;;;;4.63;4.22;;;18.50;99.90;;;;;;5079075;28;20131;-85
2022/06/30 01:40:36;;;;;;;4.80;3.58;;;18.60;99.90;;;;;;5064196;28;20344;-85
2022/06/30 01:43:03;;;;;;;6.50;3.75;;;18.60;99.90;;;;;;5071713;22;20409;-85
2022/06/30 01:45:29;;;;;;;4.75;3.28;;;18.70;99.90;;;;;;5047763;28;20044;-86
2022/06/30 01:47:55;;;;;;;9.52;3.80;;;18.60;99.90;;;;;;5067825;28;20398;-85
2022/06/30 01:50:25;;;;;;;5.15;3.90;;;18.70;99.90;;;;;;5046676;28;20426;-83
2022/06/30 01:52:50;;;;;;;5.10;3.60;;;18.70;99.90;;;;;;5042429;28;20048;-85
2022/06/30 01:55:16;;;;;;;7.65;3.78;;;18.60;99.90;;;;;;5062782;28;20050;-86
2022/06/30 01:57:42;;;;;;;5.55;3.80;;;18.60;99.90;;;;;;5087505;28;20433;-84
2022/06/30 02:00:12;;;;;;;4.03;3.28;;;18.60;99.90;;;;;;5045917;28;20706;-85
2022/06/30 02:02:37;;;;;;;4.53;3.53;;;18.60;99.90;;;;;;5063034;28;20083;-84
2022/06/30 02:05:04;;;;;;;4.18;3.75;;;18.60;99.90;;;;;;5064889;28;20088;-84
2022/06/30 02:07:30;;;;;;;4.60;3.50;;;18.50;99.90;;;;;;5049429;28;20051;-85
2022/06/30 02:09:55;;;;;;;4.20;3.80;;;18.40;99.90;;;;;;5066082;28;20048;-85
2022/06/30 02:15:09;;;;;;;7.40;3.88;;;18.40;99.90;;;;;;5062504;28;20132;-85
2022/06/30 02:17:35;;;;;;;4.43;3.88;;;18.40;99.90;;;;;;5053450;28;20079;-85
2022/06/30 02:20:01;;;;;;;3.60;3.30;;;18.40;99.90;;;;;;5047268;28;20036;-85
2022/06/30 02:22:27;;;;;;;5.60;3.60;;;18.40;99.90;;;;;;5067235;28;20474;-85
2022/06/30 02:24:53;;;;;;;4.40;4.00;;;18.30;99.90;;;;;;5075131;28;20044;-85
2022/06/30 02:27:24;;;;;;;5.78;4.28;;;18.30;99.90;;;;;;5067237;28;20098;-85
2022/06/30 02:29:51;;;;;;;4.35;3.90;;;18.30;99.90;;;;;;5080150;28;20494;-86
2022/06/30 02:32:18;;;;;;;7.50;4.63;;;18.30;99.90;;;;;;5066794;28;20376;-86
2022/06/30 02:34:44;;;;;;;6.70;4.15;;;18.30;99.90;;;;;;5061838;28;20040;-85
2022/06/30 02:37:10;;;;;;;4.90;4.40;;;18.20;99.90;;;;;;5066221;28;20079;-85
2022/06/30 02:39:36;;;;;;;6.72;4.50;;;18.30;99.90;;;;;;5080197;28;20494;-85
2022/06/30 02:42:02;;;;;;;6.00;4.68;;;18.20;99.90;;;;;;5048698;28;20052;-85
2022/06/30 02:44:27;;;;;;;5.13;3.80;;;18.20;99.90;;;;;;5062940;28;20047;-86
2022/06/30 02:46:54;;;;;;;5.47;4.60;;;18.10;99.90;;;;;;5066593;28;20086;-85
2022/06/30 02:49:21;;;;;;;7.13;4.72;;;18.10;99.90;;;;;;5045307;28;20049;-85
2022/06/30 02:51:49;;;;;;;4.78;4.32;;;18.00;99.90;;;;;;5064980;28;20056;-82
2022/06/30 02:54:15;;;;;;;4.63;4.15;;;18.00;99.90;;;;;;5058533;28;20426;-84
2022/06/30 02:56:41;;;;;;;8.82;5.13;;;18.00;99.90;;;;;;5065980;28;20132;-84
2022/06/30 02:59:08;;;;;;;4.72;4.32;;;17.90;99.90;;;;;;5060868;28;20120;-83
2022/06/30 03:01:34;;;;;;;4.95;4.10;;;17.90;99.90;;;;;;5050884;28;20084;-83
2022/06/30 03:04:02;;;;;;;7.72;4.30;;;17.80;99.90;;;;;;5063172;28;20051;-84
2022/06/30 03:06:32;;;;;;;4.88;4.13;;;17.80;99.90;;;;;;5046363;28;20082;-83
2022/06/30 03:08:59;;;;;;;7.53;3.88;;;17.70;99.90;;;;;;5062756;28;20079;-83
2022/06/30 03:11:25;;;;;;;6.22;4.53;;;17.80;99.90;;;;;;5064443;28;20047;-84
2022/06/30 03:13:51;;;;;;;5.50;4.47;;;17.70;99.90;;;;;;5064723;28;20063;-84
2022/06/30 03:16:17;;;;;;;6.07;4.10;;;17.60;99.90;;;;;;5063138;28;20044;-84
2022/06/30 03:18:44;;;;;;;5.30;4.80;;;17.60;99.90;;;;;;5062965;28;20076;-84
2022/06/30 03:21:10;;;;;;;4.50;4.10;;;17.70;99.90;;;;;;5045551;28;20040;-83
2022/06/30 03:23:36;;;;;;;6.53;4.75;;;17.60;99.90;;;;;;5063274;28;20081;-85
2022/06/30 03:26:02;;;;;;;4.32;3.92;;;17.60;99.90;;;;;;5067191;28;20127;-83
2022/06/30 03:28:28;;;;;;;6.35;4.50;;;17.60;99.90;;;;;;5048100;28;20036;-83
2022/06/30 03:30:53;;;;;;;5.13;3.90;;;17.50;99.90;;;;;;5067025;28;20040;-84
2022/06/30 03:33:19;;;;;;;5.25;4.75;;;17.50;99.90;;;;;;5067807;28;20139;-81
2022/06/30 03:35:45;;;;;;;4.22;3.83;;;17.50;99.90;;;;;;5064684;28;20123;-82
2022/06/30 03:38:12;;;;;;;6.32;5.28;;;17.50;99.90;;;;;;5064404;28;20395;-83
2022/06/30 03:40:38;;;;;;;8.20;4.93;;;17.50;99.90;;;;;;5034152;28;20059;-84
2022/06/30 03:43:03;;;;;;;5.63;5.13;;;17.60;99.90;;;;;;5049108;28;20131;-82
2022/06/30 03:45:29;;;;;;;6.03;4.65;;;17.60;99.90;;;;;;5067938;28;20178;-84
2022/06/30 03:47:55;;;;;;;6.97;4.68;;;17.60;99.90;;;;;;5069627;28;20040;-84
2022/06/30 03:50:21;;;;;;;8.07;4.68;;;17.70;99.90;;;;;;5032688;28;20398;-83
2022/06/30 03:52:46;;;;;;;8.00;4.57;;;17.70;99.90;;;;;;5067702;28;20037;-85
2022/06/30 03:55:13;;;;;;;4.75;4.35;;;17.70;99.90;;;;;;5068761;28;20465;-82
2022/06/30 03:57:38;;;;;;;4.50;4.10;;;17.80;99.90;;;;;;5070156;28;20265;-84
2022/06/30 04:00:05;;;;;;;4.85;4.40;;;17.70;99.90;;;;;;5070125;28;20048;-83
2022/06/30 04:02:32;;;;;;;5.70;3.95;;;17.70;99.90;;;;;;5054767;28;20045;-84
2022/06/30 04:04:58;;;;;;;6.70;3.97;;;17.70;99.90;;;;;;5066683;28;20575;-83
2022/06/30 04:07:24;;;;;;;7.75;4.50;;;17.80;99.90;;;;;;5048756;28;20131;-84
2022/06/30 04:09:50;;;;;;;6.35;4.40;;;17.80;99.90;;;;;;5063214;28;20466;-84
2022/06/30 04:12:15;;;;;;;5.68;4.35;;;17.80;99.90;;;;;;5062407;28;20040;-85
2022/06/30 04:14:41;;;;;;;5.32;4.25;;;17.90;99.90;;;;;;5051648;28;20044;-83
2022/06/30 04:17:07;;;;;;;14.20;5.05;;;18.10;99.90;;;;;;5054678;28;20049;-84
2022/06/30 04:19:33;;;;;;;5.25;4.07;;;18.20;99.90;;;;;;5042119;28;20408;-84
2022/06/30 04:21:59;;;;;;;4.55;4.00;;;18.10;99.90;;;;;;5043920;28;20103;-84
2022/06/30 04:24:24;;;;;;;6.70;5.05;;;18.10;99.90;;;;;;5057895;28;20043;-83
2022/06/30 04:26:50;;;;;;;6.15;4.60;;;18.20;99.90;;;;;;5033391;28;20051;-84
2022/06/30 04:29:16;;;;;;;4.78;4.22;;;18.10;99.90;;;;;;5050119;28;20051;-84
2022/06/30 04:34:26;;;;;;;9.52;4.45;;;18.70;99.90;;;;;;5065898;28;20048;-84
2022/06/30 04:36:51;;;;;;;4.28;3.88;;;19.00;99.90;;;;;;5063146;28;20387;-84
2022/06/30 04:39:17;;;;;;;7.53;4.38;;;19.10;99.90;;;;;;5067860;28;20041;-85
2022/06/30 04:41:43;;;;;;;4.07;3.78;;;19.60;99.90;;;;;;5050484;28;20061;-83
2022/06/30 04:44:08;;;;;;;5.97;4.95;;;19.10;99.90;;;;;;5040056;28;20447;-84
2022/06/30 04:46:34;;;;;;;4.35;3.95;;;19.00;99.90;;;;;;5047559;28;20480;-83
2022/06/30 04:49:00;;;;;;;4.55;4.05;;;18.90;99.90;;;;;;5046822;28;20079;-83
2022/06/30 04:51:26;;;;;;;7.50;4.10;;;19.00;99.90;;;;;;5064963;28;20040;-84
2022/06/30 04:53:52;;;;;;;5.53;4.45;;;19.40;99.90;;;;;;5066970;28;20044;-84
2022/06/30 04:56:18;;;;;;;5.30;3.45;;;19.30;99.90;;;;;;5053397;28;20048;-84
2022/06/30 04:58:44;;;;;;;4.53;4.13;;;19.20;99.90;;;;;;5067208;28;20059;-84
2022/06/30 05:01:11;;;;;;;5.10;4.55;;;19.20;99.90;;;;;;5065191;28;20494;-84
2022/06/30 05:03:37;;;;;;;6.05;3.75;;;19.20;99.90;;;;;;5081351;28;20056;-84
2022/06/30 05:06:05;;;;;;;8.70;5.00;;;19.00;99.90;;;;;;5063716;28;20055;-84
2022/06/30 05:08:31;;;;;;;5.40;3.50;;;19.10;99.90;;;;;;5049212;28;20491;-83
2022/06/30 05:10:57;;;;;;;6.90;4.38;;;19.10;99.90;;;;;;5065953;28;20123;-85
2022/06/30 05:13:22;;;;;;;4.80;4.18;;;19.00;99.90;;;;;;5033212;28;20463;-84
2022/06/30 05:15:48;;;;;;;6.22;3.88;;;19.10;99.90;;;;;;5072300;28;20045;-74
2022/06/30 05:18:14;;;;;;;6.72;4.18;;;19.00;99.90;;;;;;5050472;28;20041;-83
2022/06/30 05:20:40;;;;;;;10.50;4.43;;;18.90;99.90;;;;;;5066161;28;20125;-84
2022/06/30 05:23:07;;;;;;;4.80;3.53;;;19.00;99.90;;;;;;5063903;28;20040;-82
2022/06/30 05:28:24;;;;;;;7.20;3.83;;;19.00;99.90;;;;;;5066221;28;20076;-83
2022/06/30 05:30:51;;;;;;;5.47;3.65;;;19.10;99.90;;;;;;5051214;28;20041;-88
2022/06/30 05:33:19;;;;;;;4.95;3.95;;;19.20;99.90;;;;;;5069040;28;20048;-86
2022/06/30 05:35:47;;;;;;;5.85;3.88;;;19.30;99.90;;;;;;5061442;28;20049;-85
2022/06/30 05:38:13;;;;;;;6.35;3.38;;;19.30;99.90;;;;;;5048080;28;20039;-80
2022/06/30 05:40:39;;;;;;;3.80;3.50;;;19.30;99.90;;;;;;5066156;28;20036;-79
2022/06/30 05:43:05;;;;;;;5.15;3.83;;;19.40;99.90;;;;;;5047614;28;20129;-78
2022/06/30 05:45:31;;;;;;;5.82;3.83;;;19.60;99.90;;;;;;5065428;28;20050;-77
2022/06/30 05:47:56;;;;;;;7.47;4.20;;;19.60;99.90;;;;;;5068000;28;20036;-79
2022/06/30 05:50:22;;;;;;;7.47;4.90;;;19.70;99.90;;;;;;5047497;28;20495;-77
2022/06/30 05:52:50;;;;;;;12.23;5.70;;;19.70;99.90;;;;;;5066269;28;20450;-77
2022/06/30 05:55:16;;;;;;;5.90;4.18;;;19.70;99.90;;;;;;5080706;28;20086;-77
2022/06/30 05:57:55;;;;;;;5.25;3.97;;;19.70;99.90;;;;;;5073892;28;20049;-76
2022/06/30 06:00:23;;;;;;;4.60;4.20;;;19.70;99.90;;;;;;5047004;28;20075;-75
2022/06/30 06:02:49;;;;;;;7.53;6.15;;;19.70;99.90;;;;;;5064024;28;20040;-76
2022/06/30 06:05:15;;;;;;;11.02;6.13;;;19.80;99.90;;;;;;5045080;28;20094;-77
2022/06/30 06:07:42;;;;;;;7.65;5.50;;;19.80;99.90;;;;;;5046440;28;20087;-77
2022/06/30 06:10:16;;;;;;;5.85;5.35;;;19.90;99.90;;;;;;5053183;28;20411;-76
2022/06/30 06:12:45;;;;;;;6.90;4.28;;;19.90;99.90;;;;;;5062691;28;20102;-77
2022/06/30 06:15:12;;;;;;;5.82;5.22;;;20.00;99.90;;;;;;5058951;28;20091;-77
2022/06/30 06:17:46;;;;;;;8.15;6.53;;;20.00;99.90;;;;;;5059440;28;20045;-77
2022/06/30 06:20:14;;;;;;;14.02;6.93;;;20.10;99.90;;;;;;5051450;28;20037;-78
2022/06/30 06:22:41;;;;;;;11.90;5.95;;;20.10;99.90;;;;;;5060957;28;20048;-77
2022/06/30 06:25:08;;;;;;;8.68;6.10;;;20.20;99.90;;;;;;5053177;28;20084;-76
2022/06/30 06:27:34;;;;;;;10.35;6.07;;;20.30;99.90;;;;;;5056691;28;20045;-77
2022/06/30 06:30:04;;;;;;;5.88;5.00;;;20.40;99.90;;;;;;5042619;28;20049;-78
2022/06/30 06:32:30;;;;;;;11.25;5.28;;;20.30;99.90;;;;;;5054602;28;20380;-78
2022/06/30 06:34:56;;;;;;;9.63;5.75;;;20.40;99.90;;;;;;5056236;28;20102;-77
2022/06/30 06:37:22;;;;;;;5.60;4.93;;;20.40;99.90;;;;;;5062716;28;20041;-77
2022/06/30 06:39:48;;;;;;;6.78;5.50;;;20.50;99.90;;;;;;5053745;28;20465;-76
2022/06/30 06:42:13;;;;;;;7.82;5.32;;;20.50;99.90;;;;;;5055303;28;20041;-76
2022/06/30 06:44:39;;;;;;;5.78;4.97;;;20.60;99.90;;;;;;5060805;28;20462;-81
2022/06/30 06:47:06;;;;;;;7.68;5.20;;;20.70;99.90;;;;;;5056330;28;20115;-78
2022/06/30 06:49:32;;;;;;;9.45;6.13;;;20.80;99.90;;;;;;5059565;28;20056;-78
2022/06/30 06:51:58;;;;;;;7.35;6.00;;;20.80;99.90;;;;;;5062042;28;20044;-78
2022/06/30 06:54:23;;;;;;;7.85;6.32;;;21.00;99.90;;;;;;5060989;28;20076;-78
2022/06/30 06:56:49;;;;;;;8.60;5.03;;;21.00;99.90;;;;;;5062013;28;20041;-78
2022/06/30 06:59:16;;;;;;;14.05;7.55;;;21.50;99.90;;;;;;5062730;28;20048;-79
2022/06/30 07:01:42;;;;;;;10.32;6.97;;;22.20;99.90;;;;;;5056838;28;20037;-79
2022/06/30 07:04:08;;;;;;;11.10;6.60;;;22.50;99.90;;;;;;5060159;28;20102;-79
2022/06/30 07:06:33;;;;;;;7.90;6.05;;;23.80;99.90;;;;;;5061996;28;20041;-78
2022/06/30 07:09:01;;;;;;;9.23;6.60;;;24.30;99.90;;;;;;5059000;28;20045;-78
2022/06/30 07:11:26;;;;;;;9.45;6.38;;;24.30;99.90;;;;;;5061040;28;20140;-77
2022/06/30 07:13:52;;;;;;;8.45;6.40;;;24.70;99.90;;;;;;5061548;28;20036;-77
2022/06/30 07:16:18;;;;;;;8.05;6.03;;;25.40;99.90;;;;;;5055337;28;20483;-76
2022/06/30 07:18:44;;;;;;;11.60;6.40;;;25.70;99.90;;;;;;5061307;28;20082;-78
2022/06/30 07:21:09;;;;;;;7.65;5.53;;;25.60;99.90;;;;;;5041247;28;20049;-78
2022/06/30 07:23:35;;;;;;;6.28;5.68;;;26.30;99.90;;;;;;5047864;28;20047;-78
2022/06/30 07:26:01;;;;;;;7.30;6.57;;;26.70;99.90;;;;;;5044689;28;20037;-77
2022/06/30 07:28:27;;;;;;;9.68;7.65;;;26.10;99.90;;;;;;5047722;28;20037;-77
2022/06/30 07:30:53;;;;;;;10.90;7.57;;;25.90;99.90;;;;;;5043422;28;20104;-77
2022/06/30 07:33:18;;;;;;;7.00;6.40;;;26.90;99.90;;;;;;5045841;28;20135;-78
2022/06/30 07:35:45;;;;;;;10.40;7.25;;;27.10;99.90;;;;;;5039851;28;20069;-78
2022/06/30 07:38:11;;;;;;;7.85;6.43;;;27.00;99.90;;;;;;5044179;28;20091;-78
2022/06/30 07:40:37;;;;;;;10.30;7.00;;;27.10;99.90;;;;;;5048199;28;20101;-78
2022/06/30 07:43:03;;;;;;;7.20;6.60;;;27.10;99.90;;;;;;5047264;28;20503;-78
2022/06/30 07:45:29;;;;;;;9.88;6.70;;;26.60;99.90;;;;;;5045234;28;20043;-79
2022/06/30 07:47:55;;;;;;;8.88;6.43;;;27.40;99.90;;;;;;5043078;28;20041;-77
2022/06/30 07:50:21;;;;;;;10.35;7.50;;;27.80;99.90;;;;;;5026141;28;20037;-79
2022/06/30 07:52:48;;;;;;;9.60;7.03;;;27.20;99.90;;;;;;5033033;28;20468;-78
2022/06/30 07:55:14;;;;;;;7.13;6.47;;;25.80;99.90;;;;;;5030108;28;20049;-78
2022/06/30 07:57:42;;;;;;;7.50;6.70;;;25.60;99.90;;;;;;5046608;28;20569;-79
2022/06/30 08:00:10;;;;;;;6.30;5.72;;;25.50;99.90;;;;;;5027671;28;20072;-79
2022/06/30 08:02:35;;;;;;;7.60;6.80;;;25.40;99.90;;;;;;5048006;28;20128;-78
2022/06/30 08:05:01;;;;;;;8.65;7.70;;;25.20;99.90;;;;;;5044382;28;20089;-79
2022/06/30 08:07:27;;;;;;;7.13;6.53;;;25.00;99.90;;;;;;5040758;28;20392;-81
2022/06/30 08:09:53;;;;;;;11.77;7.47;;;25.00;99.90;;;;;;5044848;28;20570;-79
2022/06/30 08:12:18;;;;;;;7.65;6.03;;;25.20;99.90;;;;;;5044869;28;20045;-78
2022/06/30 08:14:44;;;;;;;10.20;7.53;;;25.20;99.90;;;;;;5047279;28;20098;-78
2022/06/30 08:17:10;;;;;;;16.90;9.20;;;24.90;99.90;;;;;;5045939;28;20041;-79
2022/06/30 08:19:35;;;;;;;8.27;7.47;;;25.20;99.90;;;;;;5045438;28;20037;-79
2022/06/30 08:22:01;;;;;;;7.53;6.82;;;25.30;99.90;;;;;;5044208;28;20575;-80
2022/06/30 08:24:27;;;;;;;9.32;7.68;;;25.40;99.90;;;;;;5047632;28;20067;-83
2022/06/30 08:26:53;;;;;;;13.25;7.68;;;25.30;99.90;;;;;;5043547;28;20061;-79
2022/06/30 08:29:19;;;;;;;8.95;7.90;;;25.30;99.90;;;;;;5047238;28;20385;-76
2022/06/30 08:31:44;;;;;;;10.05;7.72;;;25.50;99.90;;;;;;5047019;28;20037;-78
2022/06/30 08:34:10;;;;;;;9.05;7.82;;;25.60;99.90;;;;;;5045016;28;20044;-80
2022/06/30 08:36:36;;;;;;;8.95;8.15;;;25.50;99.90;;;;;;5044848;28;20048;-79
2022/06/30 08:39:03;;;;;;;12.73;8.95;;;25.80;99.90;;;;;;5047087;28;20424;-79
2022/06/30 08:44:19;;;;;;;10.15;9.10;;;25.60;99.90;;;;;;5047860;28;20052;-79
2022/06/30 08:46:46;;;;;;;10.13;9.05;;;25.90;99.90;;;;;;5045217;28;20040;-78
2022/06/30 08:49:11;;;;;;;12.00;8.00;;;25.80;99.90;;;;;;5043686;28;20045;-78
2022/06/30 08:51:38;;;;;;;10.02;9.02;;;26.10;99.90;;;;;;5045602;28;20097;-79
2022/06/30 08:54:06;;;;;;;10.85;9.82;;;26.10;99.90;;;;;;5044801;28;20045;-79
2022/06/30 08:56:34;;;;;;;12.15;11.10;;;26.30;99.90;;;;;;5044509;28;20041;-74
2022/06/30 08:59:02;;;;;;;11.60;9.68;;;26.20;99.90;;;;;;5042539;28;20071;-75
2022/06/30 09:01:29;;;;;;;11.55;8.50;;;26.00;99.90;;;;;;5044003;28;20041;-75
2022/06/30 09:03:58;;;;;;;9.88;8.98;;;26.30;99.90;;;;;;5044639;28;20109;-80
2022/06/30 09:06:23;;;;;;;12.97;9.63;;;26.50;99.90;;;;;;5045571;28;20080;-75
2022/06/30 09:08:50;;;;;;;8.90;7.35;;;26.20;99.90;;;;;;5044781;28;20096;-76
2022/06/30 09:11:16;;;;;;;11.15;9.60;;;26.60;99.90;;;;;;5044487;28;20053;-75
2022/06/30 09:13:45;;;;;;;9.73;7.35;;;26.90;99.90;;;;;;5043635;28;20094;-75
2022/06/30 09:16:11;;;;;;;11.15;8.93;;;26.90;99.90;;;;;;5044622;28;20060;-74
2022/06/30 09:18:37;;;;;;;11.85;8.73;;;26.80;99.90;;;;;;5040543;28;20129;-74
2022/06/30 09:21:19;;;;;;;27.33;9.52;;;26.80;99.90;;;;;;5043018;28;20060;-75
2022/06/30 09:23:47;;;;;;;9.50;8.57;;;26.80;99.90;;;;;;5045130;28;20085;-74
2022/06/30 09:26:18;;;;;;;9.45;8.55;;;27.10;99.90;;;;;;5041923;28;20049;-73
2022/06/30 09:28:54;;;;;;;10.25;8.45;;;27.10;99.90;;;;;;5044610;28;20060;-74
2022/06/30 09:31:38;;;;;;;9.82;6.53;;;27.10;99.90;;;;;;5042485;28;20045;-74
2022/06/30 09:34:21;;;;;;;14.32;9.77;;;27.20;99.90;;;;;;5044358;28;20057;-75
2022/06/30 09:36:52;;;;;;;7.65;6.50;;;26.90;99.90;;;;;;5045635;28;20051;-75
2022/06/30 09:39:19;;;;;;;7.47;6.78;;;27.30;99.90;;;;;;5044664;28;20103;-74
2022/06/30 09:41:47;;;;;;;8.23;7.40;;;27.10;99.90;;;;;;5039352;28;20110;-75
2022/06/30 09:44:22;;;;;;;8.07;6.47;;;27.00;99.90;;;;;;5045125;28;20049;-74
2022/06/30 09:47:08;;;;;;;7.28;6.60;;;27.00;99.90;;;;;;5024821;28;20056;-74
2022/06/30 09:49:42;;;;;;;7.75;6.95;;;26.80;99.90;;;;;;5040206;28;20037;-75
2022/06/30 09:52:21;;;;;;;7.13;6.45;;;26.60;99.90;;;;;;5043293;28;20059;-74
2022/06/30 09:54:54;;;;;;;10.10;7.05;;;27.10;99.90;;;;;;5028152;28;20443;-74
2022/06/30 09:57:22;;;;;;;10.63;7.10;;;27.40;99.90;;;;;;5044467;28;20483;-76
2022/06/30 09:59:58;;;;;;;8.95;7.95;;;27.40;99.90;;;;;;5043788;28;20039;-74
2022/06/30 10:02:30;;;;;;;12.93;7.82;;;27.30;99.90;;;;;;5041548;28;20503;-73
2022/06/30 10:04:57;;;;;;;11.10;6.60;;;27.40;99.90;;;;;;5035903;28;20484;-73
2022/06/30 10:07:23;;;;;;;8.55;7.60;;;27.50;99.90;;;;;;5042711;28;20372;-74
2022/06/30 10:09:50;;;;;;;8.43;7.63;;;27.60;99.90;;;;;;5039005;28;20049;-75
2022/06/30 10:12:20;;;;;;;8.60;5.75;;;27.70;99.90;;;;;;5045983;28;20131;-75
2022/06/30 10:14:49;;;;;;;8.88;7.97;;;27.80;99.90;;;;;;5044736;28;20087;-75
2022/06/30 10:17:26;;;;;;;9.98;9.00;;;27.80;99.90;;;;;;5050355;28;20624;-75
2022/06/30 10:19:52;;;;;;;10.38;8.75;;;28.00;99.90;;;;;;5044169;28;20094;-74
2022/06/30 10:22:20;;;;;;;11.88;9.90;;;27.80;99.90;;;;;;5041231;28;20091;-73
2022/06/30 10:24:47;;;;;;;13.90;12.55;;;27.90;99.90;;;;;;5026314;28;20045;-81
2022/06/30 10:27:14;;;;;;;13.77;12.43;;;27.80;99.90;;;;;;5045213;28;20040;-81
2022/06/30 10:29:52;;;;;;;11.02;9.93;;;27.70;99.90;;;;;;5026165;28;20151;-80
2022/06/30 10:32:45;;;;;;;11.32;10.10;;;27.70;99.90;;;;;;5041210;28;20053;-79
2022/06/30 10:35:17;;;;;;;11.77;9.13;;;27.80;99.90;;;;;;5042247;28;20491;-80
2022/06/30 10:37:54;;;;;;;15.60;10.63;;;27.80;99.90;;;;;;5039832;28;20500;-78
2022/06/30 10:40:20;;;;;;;15.68;9.32;;;27.60;99.90;;;;;;5044236;28;20045;-78
2022/06/30 10:42:47;;;;;;;11.07;9.93;;;27.50;99.90;;;;;;5045332;28;20103;-76
2022/06/30 10:45:28;;;;;;;11.07;10.00;;;27.40;99.90;;;;;;5044617;28;20487;-82
2022/06/30 10:47:55;;;;;;;13.43;11.40;;;27.60;99.90;;;;;;5045395;28;20295;-81
2022/06/30 10:50:51;;;;;;;12.13;10.52;;;27.60;99.90;;;;;;5040877;28;20056;-81
2022/06/30 10:53:38;;;;;;;11.40;10.30;;;27.40;99.90;;;;;;5031865;28;20554;-81
2022/06/30 10:56:04;;;;;;;13.70;9.45;;;27.50;99.90;;;;;;5044884;28;20049;-81
2022/06/30 10:58:30;;;;;;;8.98;5.80;;;27.20;99.90;;;;;;5048907;28;20041;-81
2022/06/30 11:01:05;;;;;;;8.65;6.43;;;27.50;99.90;;;;;;5048045;28;20487;-81
2022/06/30 11:03:34;;;;;;;5.72;4.97;;;27.50;99.90;;;;;;5045413;28;20045;-82
2022/06/30 11:06:02;;;;;;;8.23;7.20;;;27.50;99.90;;;;;;5046448;28;20118;-81
2022/06/30 11:08:46;;;;;;;16.88;8.52;;;27.30;99.90;;;;;;5048840;28;21128;-82
2022/06/30 11:11:24;;;;;;;7.97;7.22;;;27.40;99.90;;;;;;5048806;28;20531;-83
2022/06/30 11:14:02;;;;;;;7.07;6.03;;;27.40;99.90;;;;;;5047550;28;20400;-82
2022/06/30 11:16:29;;;;;;;7.10;4.70;;;27.50;99.90;;;;;;5042821;28;20079;-82
2022/06/30 11:18:55;;;;;;;9.68;6.13;;;27.70;99.90;;;;;;5044747;28;20049;-82
2022/06/30 11:21:21;;;;;;;7.35;5.70;;;27.50;99.90;;;;;;5047938;28;20385;-77
2022/06/30 11:23:48;;;;;;;5.75;5.18;;;27.40;99.90;;;;;;5048054;28;20044;-77
2022/06/30 11:29:01;;;;;;;8.30;5.63;;;27.70;99.90;;;;;;5046754;28;20088;-79
2022/06/30 11:31:33;;;;;;;10.25;7.35;;;27.80;99.90;;;;;;5046330;28;20037;-82
2022/06/30 11:34:08;;;;;;;13.35;8.15;;;27.80;99.90;;;;;;5041540;28;20538;-78
2022/06/30 11:36:35;;;;;;;11.00;9.70;;;27.70;99.90;;;;;;5032686;28;20168;-80
2022/06/30 11:39:08;;;;;;;10.18;9.27;;;27.80;99.90;;;;;;5046483;28;20056;-80
2022/06/30 11:44:21;;;;;;;13.52;10.75;;;28.00;99.90;;;;;;5047837;28;20169;-80
2022/06/30 11:47:02;;;;;;;14.65;13.10;;;27.80;99.90;;;;;;5046123;28;20095;-80
2022/06/30 11:49:51;;;;;;;13.02;11.73;;;27.60;99.90;;;;;;5045066;28;20043;-80
2022/06/30 11:52:26;;;;;;;13.77;9.95;;;27.40;99.90;;;;;;5046717;28;20052;-81
2022/06/30 11:54:55;;;;;;;10.52;8.82;;;27.30;99.90;;;;;;5048173;28;20043;-81
2022/06/30 11:57:31;;;;;;;11.63;8.55;;;27.20;99.90;;;;;;5043153;28;20051;-79
2022/06/30 12:00:04;;;;;;;7.93;6.60;;;27.30;99.90;;;;;;5042838;28;20037;-77
2022/06/30 12:02:30;;;;;;;8.20;7.35;;;27.50;99.90;;;;;;5040250;28;20150;-76
2022/06/30 12:04:58;;;;;;;15.35;6.82;;;27.50;99.90;;;;;;5036804;28;20112;-75
2022/06/30 12:07:25;;;;;;;11.00;7.55;;;27.30;99.90;;;;;;5029553;28;20041;-77
2022/06/30 12:09:52;;;;;;;7.35;6.07;;;27.30;99.90;;;;;;5035057;28;20140;-77
2022/06/30 12:12:27;;;;;;;11.98;7.93;;;27.30;99.90;;;;;;5043130;28;20041;-77
2022/06/30 12:15:00;;;;;;;7.53;6.45;;;27.30;99.90;;;;;;5036312;28;20495;-76
2022/06/30 12:17:32;;;;;;;10.95;6.90;;;27.30;99.90;;;;;;5040562;28;20041;-80
2022/06/30 12:19:58;;;;;;;9.02;6.47;;;27.30;99.90;;;;;;5041276;28;20047;-80
2022/06/30 12:22:24;;;;;;;5.53;5.00;;;27.10;99.90;;;;;;5039142;28;20045;-79
2022/06/30 12:24:51;;;;;;;8.38;4.80;;;27.30;99.90;;;;;;5059607;28;20546;-79
2022/06/30 12:27:29;;;;;;;7.55;6.50;;;27.40;99.90;;;;;;5047197;28;20075;-80
2022/06/30 12:30:20;;;;;;;6.13;5.13;;;27.30;99.90;;;;;;5043747;28;20417;-79
2022/06/30 12:32:57;;;;;;;6.57;5.03;;;27.40;99.90;;;;;;5047760;28;20032;-80
2022/06/30 12:35:25;;;;;;;9.75;5.28;;;27.20;99.90;;;;;;5039380;28;20049;-79
2022/06/30 12:37:51;;;;;;;11.93;5.07;;;27.00;99.90;;;;;;5041055;28;20057;-77
2022/06/30 12:40:21;;;;;;;12.40;3.78;;;26.90;99.90;;;;;;5039323;28;20051;-77
2022/06/30 12:42:51;;;;;;;10.98;5.32;;;27.10;99.90;;;;;;5046890;28;20037;-78
2022/06/30 12:45:48;;;;;;;11.50;6.88;;;27.20;99.90;;;;;;5045850;28;20464;-79
2022/06/30 12:48:41;;;;;;;8.93;4.47;;;27.30;99.90;;;;;;5045892;28;20053;-78
2022/06/30 12:51:09;;;;;;;10.07;4.85;;;27.20;99.90;;;;;;5039692;28;20109;-79
2022/06/30 12:53:35;;;;;;;7.38;4.47;;;27.30;99.90;;;;;;5041642;28;20044;-79
2022/06/30 12:56:02;;;;;;;5.72;5.03;;;27.20;99.90;;;;;;5044253;28;20041;-78
2022/06/30 12:58:50;;;;;;;14.52;7.18;;;27.30;99.90;;;;;;5045424;28;20033;-80
2022/06/30 13:01:24;;;;;;;12.15;4.72;;;27.10;99.90;;;;;;5045450;28;20045;-79
2022/06/30 13:03:51;;;;;;;9.98;4.53;;;26.80;99.90;;;;;;5044508;28;20064;-79
2022/06/30 13:06:17;;;;;;;10.05;4.55;;;27.00;99.90;;;;;;5046382;28;20517;-79